Hulin, China
Current Conditions -  °F | °C
As of 11:30 PM on Thursday 30 Oct 2014 (Local Time) from UHWW Reporting Station
Haze Haze  
Wind Chill: 41°   Ceiling: 10000
Heat Index: 41°   Visibility: 1.2mi
Dew Point: 41°   Wind: 0mph
Humidity: 100%   Direction: NA
Pressure: 30.21"   Gusts: NA
Location:  45.77°N, 132.97°E
Report Text: UHWW 301530Z 00000MPS 2000 BR SCT013 BKN100 05/05 Q1023 NOSIGRMK QFE766/1021 25CLRD70
Loading
Personal Weather Stations






























Interactive Weather Map
Tropical Storm Tracking
New forecast layout! Learn more

10-Day Weather Forecast

Advertisements
Track Severe Weather on mobile